createdAt,value
2018-09-29T00:02:26.590Z,101580.41
2018-09-29T00:04:54.814Z,101584.80
2018-09-29T00:07:22.994Z,101588.19
2018-09-29T00:09:51.236Z,101592.56
2018-09-29T00:12:19.484Z,101601.30
2018-09-29T00:14:47.732Z,101607.66
2018-09-29T00:17:15.943Z,101616.06
2018-09-29T00:19:44.108Z,101610.36
2018-09-29T00:22:12.407Z,101617.25
2018-09-29T00:24:40.558Z,101621.97
2018-09-29T00:27:08.842Z,101617.92
2018-09-29T00:29:37.018Z,101609.37
2018-09-29T00:32:05.391Z,101615.77
2018-09-29T00:34:33.512Z,101612.05
2018-09-29T00:37:01.656Z,101611.72
2018-09-29T00:39:29.802Z,101616.92
2018-09-29T00:41:57.984Z,101616.73
2018-09-29T00:44:26.224Z,101617.45
2018-09-29T00:46:54.484Z,101611.39
2018-09-29T00:49:22.690Z,101613.25
2018-09-29T00:51:50.928Z,101601.97
2018-09-29T00:54:19.256Z,101603.50
2018-09-29T00:56:47.419Z,101603.65
2018-09-29T00:59:15.684Z,101612.70
2018-09-29T01:01:43.921Z,101617.74
2018-09-29T01:04:12.160Z,101621.43
2018-09-29T01:06:40.352Z,101622.28
2018-09-29T01:09:08.629Z,101624.61
2018-09-29T01:11:36.989Z,101626.27
2018-09-29T01:14:05.191Z,101628.12
2018-09-29T01:16:33.437Z,101627.78
2018-09-29T01:19:01.656Z,101626.61
2018-09-29T01:21:29.777Z,101626.42
2018-09-29T01:23:58.799Z,101619.38
2018-09-29T01:26:26.945Z,101623.39
2018-09-29T01:28:55.066Z,101628.09
2018-09-29T01:31:23.237Z,101622.23
2018-09-29T01:33:51.377Z,101620.55
2018-09-29T01:36:19.751Z,101625.39
2018-09-29T01:38:47.957Z,101621.71
2018-09-29T01:41:16.239Z,101627.27
2018-09-29T01:43:44.470Z,101625.88
2018-09-29T01:46:12.711Z,101626.39
2018-09-29T01:48:41.020Z,101622.38
2018-09-29T01:51:09.268Z,101626.21
2018-09-29T01:53:37.506Z,101627.40
2018-09-29T01:56:05.740Z,101634.08
2018-09-29T01:58:33.926Z,101628.20
2018-09-29T02:01:02.236Z,101636.90
2018-09-29T02:03:30.478Z,101633.06
2018-09-29T02:05:58.639Z,101635.89
2018-09-29T02:08:26.778Z,101629.68
2018-09-29T02:10:54.928Z,101623.64
2018-09-29T02:13:23.129Z,101627.98
2018-09-29T02:15:51.473Z,101635.19
2018-09-29T02:18:19.740Z,101625.15
2018-09-29T02:20:47.926Z,101631.83
2018-09-29T02:23:16.056Z,101623.59
2018-09-29T02:25:44.268Z,101624.45
2018-09-29T02:28:12.496Z,101623.79
2018-09-29T02:30:40.726Z,101623.79
2018-09-29T02:33:08.950Z,101621.41
2018-09-29T02:35:37.354Z,101624.61
2018-09-29T02:38:05.644Z,101624.77
2018-09-29T02:40:33.842Z,101629.61
2018-09-29T02:43:02.294Z,101630.98
2018-09-29T02:45:30.438Z,101635.30
2018-09-29T02:47:59.308Z,101632.95
2018-09-29T02:50:28.132Z,101633.28
2018-09-29T02:52:56.336Z,101628.77
2018-09-29T02:55:24.518Z,101633.77
2018-09-29T02:57:52.707Z,101633.61
2018-09-29T03:00:20.988Z,101630.44
2018-09-29T03:02:49.140Z,101628.25
2018-09-29T03:05:17.378Z,101632.45
2018-09-29T03:07:45.520Z,101630.08
2018-09-29T03:10:13.747Z,101638.58
2018-09-29T03:12:41.991Z,101634.91
2018-09-29T03:15:10.251Z,101637.92
2018-09-29T03:17:38.469Z,101632.23
2018-09-29T03:20:06.695Z,101632.37
2018-09-29T03:22:34.875Z,101634.56
2018-09-29T03:25:03.193Z,101636.06
2018-09-29T03:27:31.339Z,101640.37
2018-09-29T03:30:00.177Z,101649.12
2018-09-29T03:32:28.430Z,101652.13
2018-09-29T03:34:56.703Z,101653.31
2018-09-29T03:37:25.062Z,101660.46
2018-09-29T03:39:53.278Z,101663.95
2018-09-29T03:42:21.497Z,101659.73
2018-09-29T03:44:49.657Z,101667.16
2018-09-29T03:47:17.805Z,101673.03
2018-09-29T03:49:47.038Z,101672.67
2018-09-29T03:52:15.240Z,101671.90
2018-09-29T03:54:43.419Z,101671.38
2018-09-29T03:57:11.592Z,101680.09
2018-09-29T03:59:39.801Z,101674.77
2018-09-29T04:02:08.005Z,101674.97
2018-09-29T04:04:36.162Z,101682.13
2018-09-29T04:07:04.328Z,101678.92
2018-09-29T04:09:32.704Z,101683.75
2018-09-29T04:12:00.892Z,101687.77
2018-09-29T04:14:29.083Z,101681.23
2018-09-29T04:16:57.242Z,101679.33
2018-09-29T04:19:25.446Z,101681.59
2018-09-29T04:21:53.765Z,101685.52
2018-09-29T04:24:22.058Z,101676.97
2018-09-29T04:26:50.320Z,101678.01
2018-09-29T04:29:18.557Z,101680.03
2018-09-29T04:31:46.730Z,101682.88
2018-09-29T04:34:15.191Z,101685.88
2018-09-29T04:36:43.560Z,101689.15
2018-09-29T04:39:13.012Z,101685.78
2018-09-29T04:41:41.228Z,101697.42
2018-09-29T04:44:10.310Z,101693.92
2018-09-29T04:46:39.124Z,101697.22
2018-09-29T04:49:07.444Z,101700.19
2018-09-29T04:51:35.748Z,101705.71
2018-09-29T04:54:03.908Z,101704.89
2018-09-29T04:56:32.480Z,101706.11
2018-09-29T04:59:00.684Z,101707.28
2018-09-29T05:01:28.810Z,101712.28
2018-09-29T05:03:56.942Z,101709.28
2018-09-29T05:06:25.529Z,101716.27
2018-09-29T05:08:53.651Z,101715.77
2018-09-29T05:11:21.849Z,101716.79
2018-09-29T05:13:50.440Z,101717.31
2018-09-29T05:16:18.723Z,101720.97
2018-09-29T05:18:47.093Z,101731.73
2018-09-29T05:21:15.337Z,101736.39
2018-09-29T05:23:43.517Z,101734.73
2018-09-29T05:26:11.722Z,101745.20
2018-09-29T05:28:40.073Z,101736.96
2018-09-29T05:31:08.349Z,101745.20
2018-09-29T05:33:37.612Z,101739.84
2018-09-29T05:36:05.927Z,101745.73
2018-09-29T05:38:34.218Z,101742.16
2018-09-29T05:41:02.501Z,101741.55
2018-09-29T05:43:30.733Z,101753.81
2018-09-29T05:45:58.933Z,101754.83
2018-09-29T05:48:27.765Z,101756.85
2018-09-29T05:50:55.979Z,101758.47
2018-09-29T05:53:24.245Z,101758.03
2018-09-29T05:55:52.466Z,101751.33
2018-09-29T05:58:20.760Z,101756.08
2018-09-29T06:00:48.914Z,101759.45
2018-09-29T06:03:17.184Z,101759.45
2018-09-29T06:05:45.439Z,101759.03
2018-09-29T06:08:13.678Z,101750.83
2018-09-29T06:10:41.944Z,101756.39
2018-09-29T06:13:10.296Z,101760.73
2018-09-29T06:15:38.462Z,101755.92
2018-09-29T06:18:06.645Z,101757.98
2018-09-29T06:20:34.793Z,101766.25
2018-09-29T06:23:02.951Z,101762.88
2018-09-29T06:25:31.067Z,101758.03
2018-09-29T06:27:59.345Z,101761.65
2018-09-29T06:30:27.781Z,101759.89
2018-09-29T06:32:56.104Z,101765.41
2018-09-29T06:35:24.233Z,101760.58
2018-09-29T06:37:52.641Z,101769.14
2018-09-29T06:40:20.733Z,101767.98
2018-09-29T06:42:48.913Z,101771.84
2018-09-29T06:45:17.053Z,101777.54
2018-09-29T06:47:45.287Z,101782.25
2018-09-29T06:50:13.471Z,101785.43
2018-09-29T06:52:41.805Z,101789.30
2018-09-29T06:55:10.031Z,101781.53
2018-09-29T06:57:38.257Z,101788.45
2018-09-29T07:00:06.615Z,101798.66
2018-09-29T07:02:34.749Z,101786.53
2018-09-29T07:05:02.990Z,101785.69
2018-09-29T07:07:31.339Z,101788.00
2018-09-29T07:10:00.078Z,101797.88
2018-09-29T07:12:28.342Z,101792.98
2018-09-29T07:14:56.567Z,101797.69
2018-09-29T07:17:24.756Z,101797.02
2018-09-29T07:19:52.927Z,101792.91
2018-09-29T07:22:21.133Z,101794.74
2018-09-29T07:24:49.893Z,101792.52
2018-09-29T07:27:18.138Z,101790.80
2018-09-29T07:29:46.467Z,101785.16
2018-09-29T07:32:14.840Z,101791.88
2018-09-29T07:34:43.189Z,101796.31
2018-09-29T07:37:11.376Z,101795.69
2018-09-29T07:39:39.665Z,101784.86
2018-09-29T07:42:08.573Z,101796.91
2018-09-29T07:44:36.808Z,101792.49
2018-09-29T07:47:04.987Z,101798.97
2018-09-29T07:49:33.183Z,101785.11
2018-09-29T07:52:01.430Z,101794.19
2018-09-29T07:54:29.633Z,101791.91
2018-09-29T07:56:57.839Z,101807.41
2018-09-29T07:59:26.202Z,101800.56
2018-09-29T08:01:54.405Z,101800.30
2018-09-29T08:04:22.613Z,101804.13
2018-09-29T08:06:50.788Z,101800.17
2018-09-29T08:09:18.942Z,101800.47
2018-09-29T08:11:47.747Z,101796.51
2018-09-29T08:14:16.104Z,101790.20
2018-09-29T08:16:44.193Z,101792.38
2018-09-29T08:19:12.356Z,101789.89
2018-09-29T08:21:40.505Z,101789.17
2018-09-29T08:24:08.829Z,101786.52
2018-09-29T08:26:37.060Z,101794.03
2018-09-29T08:29:05.248Z,101792.41
2018-09-29T08:31:33.456Z,101788.25
2018-09-29T08:34:01.662Z,101791.76
2018-09-29T08:36:29.968Z,101788.21
2018-09-29T08:38:58.279Z,101797.02
2018-09-29T08:41:26.476Z,101795.95
2018-09-29T08:43:54.686Z,101796.89
2018-09-29T08:46:23.011Z,101803.48
2018-09-29T08:48:51.197Z,101805.03
2018-09-29T08:51:19.370Z,101806.19
2018-09-29T08:53:47.645Z,101810.46
2018-09-29T08:56:15.842Z,101810.60
2018-09-29T08:58:44.085Z,101804.36
2018-09-29T09:01:12.365Z,101801.41
2018-09-29T09:03:40.528Z,101801.34
2018-09-29T09:06:08.798Z,101791.97
2018-09-29T09:08:37.650Z,101774.45
2018-09-29T09:11:06.007Z,101781.17
2018-09-29T09:13:34.288Z,101779.34
2018-09-29T09:16:03.250Z,101775.07
2018-09-29T09:18:31.453Z,101773.44
2018-09-29T09:20:59.590Z,101768.37
2018-09-29T09:23:27.905Z,101773.86
2018-09-29T09:25:56.069Z,101774.50
2018-09-29T09:28:24.325Z,101776.59
2018-09-29T09:30:52.546Z,101771.05
2018-09-29T09:33:20.715Z,101768.55
2018-09-29T09:35:48.941Z,101768.79
2018-09-29T09:38:17.097Z,101773.27
2018-09-29T09:40:47.911Z,101762.52
2018-09-29T09:43:16.091Z,101759.55
2018-09-29T09:45:44.449Z,101760.48
2018-09-29T09:48:12.627Z,101754.84
2018-09-29T09:50:40.792Z,101761.30
2018-09-29T09:53:09.033Z,101756.16
2018-09-29T09:55:37.209Z,101750.55
2018-09-29T09:58:05.528Z,101744.74
2018-09-29T10:00:39.517Z,101738.84
2018-09-29T10:03:13.345Z,101753.74
2018-09-29T10:05:41.551Z,101739.05
2018-09-29T10:08:09.696Z,101742.44
2018-09-29T10:10:37.981Z,101738.61
2018-09-29T10:13:06.326Z,101742.70
2018-09-29T10:15:34.842Z,101741.39
2018-09-29T10:18:03.333Z,101738.83
2018-09-29T10:20:31.754Z,101739.02
2018-09-29T10:23:00.050Z,101738.06
2018-09-29T10:25:28.910Z,101735.50
2018-09-29T10:27:57.158Z,101739.41
2018-09-29T10:30:25.836Z,101733.72
2018-09-29T10:32:54.185Z,101732.99
2018-09-29T10:35:22.478Z,101735.83
2018-09-29T10:37:50.736Z,101734.50
2018-09-29T10:40:18.958Z,101734.70
2018-09-29T10:42:47.174Z,101736.36
2018-09-29T10:45:15.372Z,101733.84
2018-09-29T10:47:43.661Z,101726.05
2018-09-29T10:50:11.950Z,101722.88
2018-09-29T10:52:41.082Z,101720.69
2018-09-29T10:55:09.284Z,101721.65
2018-09-29T10:57:37.708Z,101711.56
2018-09-29T11:00:06.827Z,101703.16
2018-09-29T11:02:41.702Z,101701.63
2018-09-29T11:05:09.813Z,101690.24
2018-09-29T11:07:37.922Z,101691.86
2018-09-29T11:10:06.247Z,101683.30
2018-09-29T11:12:34.486Z,101686.27
2018-09-29T11:15:02.654Z,101682.70
2018-09-29T11:17:30.858Z,101682.35
2018-09-29T11:19:59.048Z,101673.21
2018-09-29T11:22:27.322Z,101678.47
2018-09-29T11:24:55.578Z,101678.74
2018-09-29T11:27:25.521Z,101668.04
2018-09-29T11:29:53.799Z,101669.31
2018-09-29T11:32:22.829Z,101667.69
2018-09-29T11:34:50.985Z,101665.41
2018-09-29T11:37:19.197Z,101655.96
2018-09-29T11:39:47.412Z,101660.28
2018-09-29T11:42:15.653Z,101645.00
2018-09-29T11:44:43.930Z,101637.04
2018-09-29T11:47:12.770Z,101641.72
2018-09-29T11:49:40.997Z,101634.42
2018-09-29T11:52:09.206Z,101630.84
2018-09-29T11:54:37.436Z,101623.77
2018-09-29T11:57:05.767Z,101627.17
2018-09-29T11:59:33.967Z,101623.63
2018-09-29T12:02:02.271Z,101622.63
2018-09-29T12:04:30.486Z,101618.30
2018-09-29T12:06:58.762Z,101618.99
2018-09-29T12:09:26.972Z,101619.24
2018-09-29T12:11:55.198Z,101612.92
2018-09-29T12:14:23.453Z,101601.30
2018-09-29T12:16:51.711Z,101607.51
2018-09-29T12:19:20.012Z,101601.50
2018-09-29T12:21:48.221Z,101598.86
2018-09-29T12:24:16.683Z,101601.53
2018-09-29T12:26:44.933Z,101594.61
2018-09-29T12:29:13.346Z,101596.76
2018-09-29T12:31:41.597Z,101589.93
2018-09-29T12:34:09.836Z,101580.86
2018-09-29T12:36:38.022Z,101579.80
2018-09-29T12:39:08.230Z,101569.73
2018-09-29T12:41:36.637Z,101569.78
2018-09-29T12:44:04.832Z,101559.13
2018-09-29T12:46:33.034Z,101559.77
2018-09-29T12:49:01.252Z,101560.25
2018-09-29T12:51:29.492Z,101553.09
2018-09-29T12:53:57.715Z,101542.66
2018-09-29T12:56:26.508Z,101537.85
2018-09-29T12:58:54.859Z,101542.90
2018-09-29T13:01:23.000Z,101538.03
2018-09-29T13:03:51.207Z,101529.63
2018-09-29T13:06:19.450Z,101531.36
2018-09-29T13:08:48.393Z,101528.66
2018-09-29T13:11:17.214Z,101525.22
2018-09-29T13:13:45.478Z,101519.75
2018-09-29T13:16:13.626Z,101519.62
2018-09-29T13:18:41.850Z,101505.95
2018-09-29T13:21:10.026Z,101504.61
2018-09-29T13:23:38.202Z,101503.67
2018-09-29T13:26:06.515Z,101504.63
2018-09-29T13:28:34.695Z,101496.36
2018-09-29T13:31:02.921Z,101499.20
2018-09-29T13:33:31.190Z,101498.19
2018-09-29T13:35:59.426Z,101496.58
2018-09-29T13:38:27.571Z,101499.41
2018-09-29T13:40:55.874Z,101487.48
2018-09-29T13:43:24.297Z,101482.33
2018-09-29T13:45:52.578Z,101481.98
2018-09-29T13:48:20.720Z,101482.25
2018-09-29T13:50:48.960Z,101467.60
2018-09-29T13:53:17.182Z,101463.75
2018-09-29T13:55:45.410Z,101457.52
2018-09-29T13:58:14.200Z,101459.28
2018-09-29T14:00:42.363Z,101454.09
2018-09-29T14:03:10.542Z,101451.67
2018-09-29T14:05:39.518Z,101438.15
2018-09-29T14:08:07.671Z,101439.19
2018-09-29T14:10:35.929Z,101442.81
2018-09-29T14:13:04.095Z,101445.38
2018-09-29T14:15:32.253Z,101438.43
2018-09-29T14:18:00.446Z,101435.84
2018-09-29T14:20:28.625Z,101428.36
2018-09-29T14:22:56.784Z,101430.52
2018-09-29T14:25:24.935Z,101425.09
2018-09-29T14:27:53.111Z,101428.78
2018-09-29T14:30:21.314Z,101424.63
2018-09-29T14:32:49.542Z,101423.91
2018-09-29T14:35:18.567Z,101414.06
2018-09-29T14:37:46.678Z,101408.63
2018-09-29T14:40:14.854Z,101403.30
2018-09-29T14:42:43.020Z,101411.54
2018-09-29T14:45:11.191Z,101403.30
2018-09-29T14:47:39.444Z,101406.48
2018-09-29T14:50:07.776Z,101402.23
2018-09-29T14:52:36.106Z,101402.87
2018-09-29T14:55:04.775Z,101411.59
2018-09-29T14:57:33.084Z,101402.50
2018-09-29T15:00:01.251Z,101399.48
2018-09-29T15:02:29.482Z,101401.41
2018-09-29T15:04:58.552Z,101397.08
2018-09-29T15:07:26.708Z,101390.20
2018-09-29T15:09:55.745Z,101396.28
2018-09-29T15:12:23.842Z,101390.07
2018-09-29T15:14:52.697Z,101401.89
2018-09-29T15:17:21.007Z,101398.20
2018-09-29T15:19:49.174Z,101386.59
2018-09-29T15:22:17.418Z,101385.66
2018-09-29T15:24:45.609Z,101381.63
2018-09-29T15:27:13.673Z,101387.12
2018-09-29T15:29:41.865Z,101375.39
2018-09-29T15:32:11.323Z,101383.81
2018-09-29T15:34:39.993Z,101380.13
2018-09-29T15:37:08.251Z,101381.92
2018-09-29T15:39:36.354Z,101379.83
2018-09-29T15:42:04.554Z,101375.87
2018-09-29T15:44:32.719Z,101380.89
2018-09-29T15:47:00.917Z,101369.67
2018-09-29T15:49:29.095Z,101368.97
2018-09-29T15:51:57.337Z,101371.02
2018-09-29T15:54:25.622Z,101367.47
2018-09-29T15:56:53.829Z,101364.67
2018-09-29T15:59:22.069Z,101359.91
2018-09-29T16:01:56.775Z,101360.98
2018-09-29T16:04:24.969Z,101355.98
2018-09-29T16:06:53.258Z,101356.19
2018-09-29T16:09:21.437Z,101355.48
2018-09-29T16:11:49.704Z,101350.57
2018-09-29T16:14:18.029Z,101351.55
2018-09-29T16:16:46.634Z,101355.45
2018-09-29T16:19:14.909Z,101354.58
2018-09-29T16:21:43.116Z,101353.41
2018-09-29T16:24:11.989Z,101349.85
2018-09-29T16:26:40.156Z,101345.33
2018-09-29T16:29:08.425Z,101343.02
2018-09-29T16:31:36.714Z,101343.41
2018-09-29T16:34:04.896Z,101344.69
2018-09-29T16:36:33.192Z,101341.70
2018-09-29T16:39:01.405Z,101343.32
2018-09-29T16:41:29.708Z,101339.69
2018-09-29T16:43:57.951Z,101334.56
2018-09-29T16:46:26.158Z,101339.78
2018-09-29T16:48:54.406Z,101342.45
2018-09-29T16:51:22.605Z,101340.11
2018-09-29T16:53:51.568Z,101339.70
2018-09-29T16:56:19.696Z,101341.75
2018-09-29T16:58:47.881Z,101342.92
2018-09-29T17:01:16.071Z,101347.31
2018-09-29T17:03:44.324Z,101349.72
2018-09-29T17:06:13.254Z,101349.94
2018-09-29T17:08:41.453Z,101353.11
2018-09-29T17:11:09.657Z,101358.73
2018-09-29T17:13:37.815Z,101359.69
2018-09-29T17:16:06.581Z,101358.96
2018-09-29T17:18:34.977Z,101356.69
2018-09-29T17:21:03.142Z,101357.95
2018-09-29T17:23:32.233Z,101357.95
2018-09-29T17:26:01.188Z,101358.27
2018-09-29T17:28:29.720Z,101361.61
2018-09-29T17:30:58.079Z,101360.66
2018-09-29T17:33:26.309Z,101364.52
2018-09-29T17:35:54.653Z,101361.39
2018-09-29T17:38:22.845Z,101362.86
2018-09-29T17:40:51.197Z,101372.84
2018-09-29T17:43:19.378Z,101365.49
2018-09-29T17:45:48.335Z,101371.41
2018-09-29T17:48:16.528Z,101368.05
2018-09-29T17:50:44.768Z,101370.87
2018-09-29T17:53:13.546Z,101373.78
2018-09-29T17:55:41.741Z,101367.32
2018-09-29T17:58:09.965Z,101370.65
2018-09-29T18:00:38.078Z,101370.28
2018-09-29T18:03:06.417Z,101377.04
2018-09-29T18:05:34.633Z,101375.14
2018-09-29T18:08:02.787Z,101366.06
2018-09-29T18:10:31.158Z,101366.80
2018-09-29T18:12:59.411Z,101360.22
2018-09-29T18:15:27.674Z,101359.41
2018-09-29T18:17:55.996Z,101364.25
2018-09-29T18:20:24.279Z,101373.95
2018-09-29T18:22:52.440Z,101369.63
2018-09-29T18:25:20.771Z,101372.36
2018-09-29T18:27:48.982Z,101376.97
2018-09-29T18:30:17.946Z,101372.25
2018-09-29T18:32:46.080Z,101370.95
2018-09-29T18:35:15.113Z,101369.91
2018-09-29T18:37:43.245Z,101375.05
2018-09-29T18:40:11.687Z,101361.10
2018-09-29T18:42:41.386Z,101368.59
2018-09-29T18:45:09.576Z,101357.79
2018-09-29T18:47:38.166Z,101358.06
2018-09-29T18:50:06.493Z,101358.97
2018-09-29T18:52:35.038Z,101356.88
2018-09-29T18:55:03.386Z,101350.25
2018-09-29T18:57:31.655Z,101355.28
2018-09-29T19:00:00.081Z,101346.27
2018-09-29T19:02:28.816Z,101346.84
2018-09-29T19:04:57.025Z,101351.18
2018-09-29T19:07:25.534Z,101343.45
2018-09-29T19:09:53.908Z,101344.30
2018-09-29T19:12:22.073Z,101342.44
2018-09-29T19:14:50.399Z,101337.95
2018-09-29T19:17:18.661Z,101337.70
2018-09-29T19:19:46.849Z,101333.64
2018-09-29T19:22:15.220Z,101332.66
2018-09-29T19:24:43.671Z,101331.05
2018-09-29T19:27:11.970Z,101326.95
2018-09-29T19:29:40.235Z,101331.84
2018-09-29T19:32:09.158Z,101333.07
2018-09-29T19:34:37.316Z,101331.06
2018-09-29T19:37:05.599Z,101333.88
2018-09-29T19:39:33.897Z,101330.28
2018-09-29T19:42:02.064Z,101336.02
2018-09-29T19:44:30.616Z,101335.16
2018-09-29T19:46:58.863Z,101331.97
2018-09-29T19:49:27.041Z,101329.13
2018-09-29T19:51:55.500Z,101315.98
2018-09-29T19:54:23.811Z,101319.98
2018-09-29T19:56:52.004Z,101315.79
2018-09-29T19:59:20.527Z,101312.64
2018-09-29T20:01:48.857Z,101316.23
2018-09-29T20:04:17.159Z,101311.23
2018-09-29T20:06:45.732Z,101314.83
2018-09-29T20:09:14.042Z,101313.17
2018-09-29T20:11:42.247Z,101310.09
2018-09-29T20:14:10.409Z,101304.39
2018-09-29T20:16:38.612Z,101303.22
2018-09-29T20:19:07.520Z,101306.42
2018-09-29T20:21:35.695Z,101299.81
2018-09-29T20:24:04.542Z,101297.75
2018-09-29T20:26:32.805Z,101293.59
2018-09-29T20:29:01.031Z,101290.00
2018-09-29T20:31:29.257Z,101292.50
2018-09-29T20:33:57.446Z,101296.17
2018-09-29T20:36:25.894Z,101290.18
2018-09-29T20:38:54.100Z,101291.67
2018-09-29T20:41:22.276Z,101284.34
2018-09-29T20:43:51.272Z,101291.72
2018-09-29T20:46:19.422Z,101287.38
2018-09-29T20:48:47.681Z,101285.03
2018-09-29T20:51:15.853Z,101281.96
2018-09-29T20:53:44.016Z,101275.80
2018-09-29T20:56:12.719Z,101271.13
2018-09-29T20:58:40.904Z,101266.02
2018-09-29T21:01:09.232Z,101272.86
2018-09-29T21:03:37.592Z,101270.33
2018-09-29T21:06:05.787Z,101268.59
2018-09-29T21:08:33.956Z,101259.05
2018-09-29T21:11:02.184Z,101263.50
2018-09-29T21:13:30.477Z,101261.67
2018-09-29T21:15:59.795Z,101257.27
2018-09-29T21:18:28.469Z,101263.09
2018-09-29T21:20:57.326Z,101263.64
2018-09-29T21:23:25.513Z,101255.45
2018-09-29T21:25:54.625Z,101250.70
2018-09-29T21:28:22.864Z,101246.47
2018-09-29T21:30:51.125Z,101241.81
2018-09-29T21:33:19.987Z,101245.08
2018-09-29T21:35:48.201Z,101246.66
2018-09-29T21:38:17.084Z,101247.42
2018-09-29T21:40:45.648Z,101241.92
2018-09-29T21:43:13.904Z,101232.36
2018-09-29T21:45:42.080Z,101234.73
2018-09-29T21:48:10.848Z,101229.48
2018-09-29T21:50:38.986Z,101230.28
2018-09-29T21:53:07.945Z,101226.59
2018-09-29T21:55:36.111Z,101214.98
2018-09-29T21:58:04.934Z,101214.09
2018-09-29T22:00:38.961Z,101208.95
2018-09-29T22:03:07.478Z,101201.19
2018-09-29T22:05:35.652Z,101197.30
2018-09-29T22:08:04.465Z,101194.77
2018-09-29T22:10:32.699Z,101192.59
2018-09-29T22:13:00.885Z,101188.76
2018-09-29T22:15:29.315Z,101183.89
2018-09-29T22:17:58.164Z,101182.43
2018-09-29T22:20:26.441Z,101180.69
2018-09-29T22:22:55.095Z,101171.51
2018-09-29T22:25:24.008Z,101174.74
2018-09-29T22:27:52.411Z,101170.29
2018-09-29T22:30:20.570Z,101165.18
2018-09-29T22:32:49.296Z,101160.69
2018-09-29T22:35:17.656Z,101153.88
2018-09-29T22:37:45.823Z,101145.11
2018-09-29T22:40:13.976Z,101145.69
2018-09-29T22:42:42.246Z,101141.77
2018-09-29T22:45:10.580Z,101140.45
2018-09-29T22:47:38.820Z,101138.11
2018-09-29T22:50:07.073Z,101134.96
2018-09-29T22:52:35.349Z,101129.29
2018-09-29T22:55:03.586Z,101128.75
2018-09-29T22:57:31.861Z,101125.26
2018-09-29T23:00:00.639Z,101118.82
2018-09-29T23:02:28.808Z,101119.88
2018-09-29T23:04:57.016Z,101120.88
2018-09-29T23:07:25.260Z,101121.04
2018-09-29T23:09:53.355Z,101119.81
2018-09-29T23:12:21.432Z,101119.97
2018-09-29T23:14:49.641Z,101118.54
2018-09-29T23:17:17.915Z,101116.23
2018-09-29T23:19:46.088Z,101115.98
2018-09-29T23:22:14.235Z,101117.86
2018-09-29T23:24:42.325Z,101116.66
2018-09-29T23:27:10.441Z,101116.07
2018-09-29T23:29:38.596Z,101116.84
2018-09-29T23:32:06.848Z,101117.63
2018-09-29T23:34:35.089Z,101116.97
2018-09-29T23:37:03.253Z,101112.05
2018-09-29T23:39:32.073Z,101110.73
2018-09-29T23:42:00.259Z,101109.28
2018-09-29T23:44:28.403Z,101100.48
2018-09-29T23:46:56.719Z,101100.33
2018-09-29T23:49:24.826Z,101094.30
2018-09-29T23:51:56.141Z,101091.63
2018-09-29T23:54:24.491Z,101091.49
2018-09-29T23:56:52.613Z,101097.80
2018-09-29T23:59:20.735Z,101095.15
